Latest Coastal Weather Observations for Port Macquarie Airport

IDN60701

Issued at 11:11 am EST Monday 6 July 2015 (issued every 10 minutes, with the page automatically refreshed every 10 minutes)

About coastal observations | Map of coastal stations | Coastal observations for NSW | Marine services | Other Formats
Station Details ID: 060139 Name: PORT MACQUARIE AIRPORT AWS Lat: -31.43 Lon: 152.87 Height: 4.2 m
Data from the previous 72 hours. | See also: Recent months at Port Macquarie Airport
Date/Time
EST
Temp

°C
Wind Pressure Rain
since 9am
mm
Weather Cloud Vis
km
Sea
Height
m
Swell
Dir
 
Speed
knots
Gust
knots
hPa Trend Height
m
Period
s
Dir
06/11:00am 16.9 WNW 1 4 1015.9 - 0.0 - - 10 - - - -
06/10:30am 15.4 N 3 5 1016.2 - 0.0 - - 10 - - - -
06/10:00am 13.7 N 4 6 1016.6 - 0.0 - - 10 - - - -
06/09:30am 11.8 NW 4 5 1016.9 - 0.0 - - 10 - - - -
06/09:00am 10.0 N 4 6 1017.2 - 0.0 - - 10 - - - -
06/08:30am 7.9 NW 5 5 1017.2 - 0.0 - - 10 - - - -
06/08:00am 6.5 NNW 4 6 1017.1 - 0.0 - - 10 - - - -
06/07:30am 5.6 NW 4 5 1017.0 - 0.0 - - 10 - - - -
06/07:00am 4.7 NNW 3 5 1016.9 - 0.0 - - 10 - - - -
06/06:30am 4.8 N 3 4 1016.9 - 0.0 - - 10 - - - -
06/06:00am 5.7 CALM 0 0 1016.7 - 0.0 - - 10 - - - -
06/05:30am 5.2 NW 3 4 1016.8 - 0.0 - - 10 - - - -
06/05:00am 6.2 CALM 0 0 1016.7 - 0.0 - - 10 - - - -
06/04:30am 5.5 CALM 0 0 1016.8 - 0.0 - - 10 - - - -
06/04:00am 6.6 CALM 0 0 1017.0 - 0.0 - - 10 - - - -
06/03:30am 6.0 NW 2 4 1017.3 - 0.0 - - 10 - - - -
06/03:00am 6.6 W 2 4 1017.4 - 0.0 - - 10 - - - -
06/02:30am 6.0 WNW 1 4 1017.6 - 0.0 - - 10 - - - -
06/02:00am 6.0 WNW 1 4 1017.8 - 0.0 - - 10 - - - -
06/01:30am 6.1 NW 3 4 1018.0 - 0.0 - - 10 - - - -
06/01:00am 6.5 NW 3 3 1018.0 - 0.0 - - 10 - - - -
06/12:30am 6.5 NW 3 4 1018.5 - 0.0 - - 10 - - - -
06/12:00am 7.3 NW 3 4 1018.7 - 0.0 - - 10 - - - -
 
Date/Time
EST
Temp

°C
Wind Pressure Rain
since 9am
mm
Weather Cloud Vis
km
Sea
Height
m
Swell
Dir
 
Speed
knots
Gust
knots
hPa Trend Height
m
Period
s
Dir
05/11:30pm 7.0 CALM 0 0 1019.0 - 0.0 - - 10 - - - -
05/11:00pm 7.1 CALM 0 3 1019.4 - 0.0 - - 10 - - - -
05/10:30pm 6.9 CALM 0 3 1019.4 - 0.0 - - 10 - - - -
05/10:00pm 6.0 CALM 0 0 1019.5 - 0.0 - - 10 - - - -
05/09:30pm 6.1 CALM 0 0 1019.7 - 0.0 - - 10 - - - -
05/09:00pm 6.5 CALM 0 0 1019.8 - 0.0 - - 10 - - - -
05/08:30pm 7.0 CALM 0 0 1020.0 - 0.0 - - 10 - - - -
05/08:00pm 7.1 CALM 0 0 1020.1 - 0.0 - - 10 - - - -
05/07:30pm 7.8 CALM 0 0 1020.1 - 0.0 - - 10 - - - -
05/07:00pm 8.0 CALM 0 0 1019.7 - 0.0 - - 10 - - - -
05/06:30pm 8.5 CALM 0 0 1019.6 - 0.0 - - 10 - - - -
05/06:00pm 9.6 CALM 0 0 1019.6 - 0.0 - - 10 - - - -
05/05:30pm 10.8 WNW 2 4 1019.4 - 0.0 - - 10 - - - -
05/05:00pm 12.8 CALM 0 0 1019.0 - 0.0 - - 10 - - - -
05/04:30pm 16.3 NNE 4 6 1018.8 - 0.0 - - 10 - - - -
05/04:00pm 16.9 NE 5 7 1018.8 - 0.0 - - 10 - - - -
05/03:30pm 17.3 ENE 6 8 1018.8 - 0.0 - - 10 - - - -
05/03:00pm 17.9 ENE 5 7 1018.9 - 0.0 - Mostly clear 10 - - - -
05/02:30pm 18.5 N 4 6 1019.1 - 0.0 - - 10 - - - -
05/02:00pm 18.3 NE 4 6 1019.2 - 0.0 - - 10 - - - -
05/01:30pm 18.4 N 1 3 1019.4 - 0.0 - - 10 - - - -
05/01:00pm 18.4 N 4 6 1019.8 - 0.0 - - 10 - - - -
05/12:30pm 17.4 WNW 2 5 1020.3 - 0.0 - - 10 - - - -
05/12:00pm 16.8 SSE 3 5 1020.7 - 0.0 - - 10 - - - -
05/11:30am 17.0 SSE 5 8 1021.0 - 0.0 - - 10 - - - -
05/11:00am 15.5 WSW 4 7 1021.5 - 0.0 - - 10 - - - -
05/10:30am 14.6 NW 3 5 1021.8 - 0.0 - - 10 - - - -
05/10:00am 13.7 NW 4 6 1022.0 - 0.0 - - 10 - - - -
05/09:30am 12.4 W 3 5 1022.3 - 0.0 - - 10 - - - -
05/09:00am 11.2 W 4 6 1022.2 - 0.0 - - 10 - - - -
05/08:30am 9.9 W 4 5 1022.2 - 0.0 - - 10 - - - -
05/08:00am 8.3 WSW 4 6 1022.2 - 0.0 - - 10 - - - -
05/07:30am 6.6 W 2 5 1022.0 - 0.0 - - 10 - - - -
05/07:00am 5.9 WNW 1 4 1021.7 - 0.0 - - 10 - - - -
05/06:30am 5.9 W 3 5 1021.6 - 0.0 - - 10 - - - -
05/06:00am 7.1 W 2 4 1021.3 - 0.0 - Mostly clear 10 - - - -
05/05:30am 7.0 CALM 0 0 1021.3 - 0.0 - - 10 - - - -
05/05:00am 7.6 W 3 4 1021.2 - 0.0 - - 10 - - - -
05/04:30am 7.5 W 3 6 1021.3 - 0.0 - - 10 - - - -
05/04:00am 8.0 W 3 5 1021.0 - 0.0 - - 10 - - - -
05/03:30am 8.3 WSW 2 4 1021.0 - 0.0 - - 10 - - - -
05/03:00am 8.4 WNW 2 4 1021.0 - 0.0 - - 10 - - - -
05/02:30am 9.0 W 4 8 1021.1 - 0.0 - - 10 - - - -
05/02:00am 8.9 SW 1 5 1021.1 - 0.0 - - 10 - - - -
05/01:30am 10.0 WNW 6 9 1021.2 - 0.0 - - 10 - - - -
05/01:00am 10.3 W 4 5 1021.0 - 0.0 - - 10 - - - -
05/12:30am 10.6 W 5 8 1020.8 - 0.0 - - 10 - - - -
05/12:00am 10.5 WNW 6 8 1021.2 - 0.0 - Cloudy 10 - - - -
 
Date/Time
EST
Temp

°C
Wind Pressure Rain
since 9am
mm
Weather Cloud Vis
km
Sea
Height
m
Swell
Dir
 
Speed
knots
Gust
knots
hPa Trend Height
m
Period
s
Dir
04/11:30pm 10.6 W 8 12 1021.3 - 0.0 - - 10 - - - -
04/11:00pm 10.4 WNW 7 11 1021.5 - 0.0 - - 10 - - - -
04/10:30pm 9.7 WNW 9 14 1021.4 - 0.0 - - 10 - - - -
04/10:00pm 7.0 WNW 2 3 1021.5 - 0.0 - - 10 - - - -
04/09:30pm 6.7 SSW 3 4 1021.5 - 0.0 - - 10 - - - -
04/09:00pm 7.4 SW 1 3 1021.6 - 0.0 - - 10 - - - -
04/08:30pm 7.5 WSW 1 3 1021.6 - 0.0 - - 10 - - - -
04/08:00pm 8.7 CALM 0 0 1021.4 - 0.0 - - 10 - - - -
04/07:30pm 9.0 CALM 0 0 1021.3 - 0.0 - - 10 - - - -
04/07:00pm 9.5 CALM 0 0 1021.2 - 0.0 - - 10 - - - -
04/06:30pm 10.4 CALM 0 0 1020.9 - 0.0 - - 10 - - - -
04/06:00pm 10.7 SW 3 4 1020.5 - 0.0 - - 10 - - - -
04/05:30pm 12.5 CALM 0 0 1020.0 - 0.0 - - 10 - - - -
04/05:00pm 14.7 CALM 0 0 1019.8 - 0.0 - - 10 - - - -
04/04:30pm 18.0 NE 3 5 1019.6 - 0.0 - - 10 - - - -
04/04:00pm 18.9 ENE 4 6 1019.6 - 0.0 - - 10 - - - -
04/03:30pm 19.3 NE 4 6 1019.4 - 0.0 - - 10 - - - -
04/03:00pm 19.1 ENE 1 3 1019.4 - 0.0 - Mostly cloudy 10 - - - -
04/02:30pm 18.8 NW 3 4 1019.5 - 0.0 - - 10 - - - -
04/02:00pm 19.0 N 4 7 1019.4 - 0.0 - Partly cloudy 10 - - - -
04/01:30pm 19.7 WNW 4 8 1019.7 - 0.0 - - 10 - - - -
04/01:00pm 19.2 NNE 6 7 1020.2 - 0.0 - - 10 - - - -
04/12:30pm 19.1 NNW 7 15 1020.7 - 0.0 - - 10 - - - -
04/12:00pm 19.0 N 7 10 1021.2 - 0.0 - - 10 - - - -
04/11:30am 18.6 N 6 9 1022.0 - 0.0 - - 10 - - - -
04/11:00am 16.9 NNW 6 10 1022.4 - 0.0 - - 10 - - - -
04/10:30am 16.4 NW 5 8 1023.0 - 0.0 - - 10 - - - -
04/10:00am 15.1 NW 6 8 1023.4 - 0.0 - - 10 - - - -
04/09:30am 13.8 WNW 5 7 1023.7 - 0.0 - Partly cloudy 10 - - - -
04/09:00am 13.2 W 6 8 1024.0 - 0.0 - Mostly cloudy 10 - - - -
04/08:30am 12.8 WNW 5 7 1023.8 - 0.0 - Partly cloudy 10 - - - -
04/08:00am 11.6 NW 3 5 1023.6 - 0.0 - Cloudy 10 - - - -
04/07:30am 10.9 CALM 0 0 1023.8 - 0.0 - Partly cloudy 10 - - - -
04/07:00am 10.5 W 1 4 1023.6 - 0.0 - Cloudy 10 - - - -
04/06:30am 10.9 W 4 7 1023.6 - 0.0 - Cloudy 10 - - - -
04/06:00am 10.5 WNW 6 8 1023.3 - 0.0 - Partly cloudy 10 - - - -
04/05:30am 10.5 WNW 4 6 1022.9 - 0.0 - Cloudy 10 - - - -
04/05:00am 10.7 W 5 6 1022.8 - 0.0 - Partly cloudy 10 - - - -
04/04:30am 10.3 CALM 0 3 1022.7 - 0.0 - Cloudy 10 - - - -
04/04:00am 10.3 WSW 1 4 1022.8 - 0.0 - - 10 - - - -
04/03:30am 10.7 WSW 3 4 1023.1 - 0.0 - Partly cloudy 10 - - - -
04/03:00am 11.8 W 5 7 1023.2 - 0.0 - Cloudy 10 - - - -
04/02:30am 12.0 W 7 9 1023.5 - 0.0 - Partly cloudy 10 - - - -
04/02:00am 12.0 W 6 8 1023.9 - 0.0 - Partly cloudy 10 - - - -
04/01:30am 12.0 W 6 8 1023.9 - 0.0 - Partly cloudy 10 - - - -
04/01:00am 12.1 W 4 5 1023.9 - 0.0 - Partly cloudy 10 - - - -
04/12:30am 11.9 W 4 6 1024.1 - 0.0 - Partly cloudy 10 - - - -
04/12:00am 11.9 WNW 4 5 1024.2 - 0.0 - Mostly cloudy 10 - - - -
 
Date/Time
EST
Temp

°C
Wind Pressure Rain
since 9am
mm
Weather Cloud Vis
km
Sea
Height
m
Swell
Dir
 
Speed
knots
Gust
knots
hPa Trend Height
m
Period
s
Dir
03/11:30pm 12.1 W 5 6 1024.3 - 0.0 - Partly cloudy 10 - - - -
03/11:00pm 12.1 W 5 7 1024.4 - 0.0 - Cloudy 10 - - - -
03/10:30pm 11.9 W 5 6 1024.6 - 0.0 - Partly cloudy 10 - - - -
03/10:00pm 12.3 WSW 6 7 1024.6 - 0.0 - Cloudy 10 - - - -
03/09:30pm 12.3 W 7 9 1024.7 - 0.0 - Partly cloudy 10 - - - -
03/09:00pm 12.3 W 8 13 1025.0 - 0.0 - Mostly cloudy 10 - - - -
03/08:30pm 12.4 W 7 9 1024.9 - 0.0 - Cloudy 10 - - - -
03/08:00pm 12.4 W 7 8 1024.8 - 0.0 - Partly cloudy 10 - - - -
03/07:30pm 12.2 W 6 8 1024.6 - 0.0 - Partly cloudy 10 - - - -
03/07:00pm 12.3 WSW 5 7 1024.4 - 0.0 - Partly cloudy 10 - - - -
03/06:30pm 12.0 W 4 6 1024.3 - 0.0 - Partly cloudy 10 - - - -
03/06:00pm 12.2 W 6 8 1024.1 - 0.0 - - 10 - - - -
03/05:30pm 12.3 WSW 7 9 1024.0 - 0.0 - - 10 - - - -
03/05:00pm 12.7 W 6 9 1023.8 - 0.0 - Partly cloudy 10 - - - -
03/04:30pm 13.6 WSW 9 11 1023.6 - 0.0 - - 10 - - - -
03/04:00pm 14.6 SW 11 16 1023.7 - 0.0 - - 10 - - - -
03/03:30pm 15.1 SW 11 15 1023.4 - 0.0 - Partly cloudy 10 - - - -
03/03:00pm 14.9 SW 9 11 1023.1 - 0.0 - Partly cloudy 10 - - - -
03/02:30pm 15.9 WSW 12 18 1023.0 - 0.0 - Partly cloudy 10 - - - -
03/02:00pm 15.6 SW 11 17 1022.8 - 0.0 - Partly cloudy 10 - - - -
03/01:30pm 15.6 SW 15 19 1022.8 - 0.0 - Partly cloudy 10 - - - -
03/01:00pm 16.1 SW 14 20 1022.9 - 0.0 - - 10 - - - -
03/12:30pm 16.5 SW 11 17 1023.1 - 0.0 - - 10 - - - -
03/12:00pm 15.7 SW 15 20 1023.6 - 0.0 - - 10 - - - -
03/11:30am 15.8 SW 12 16 1023.8 - 0.0 - Partly cloudy 10 - - - -

Other Formats:

Comma delimited format used in spreadsheet applications
http://www.bom.gov.au/fwo/IDN60701/IDN60701.94786.axf

JavaScript Object Notation format (JSON) in row-major order
http://www.bom.gov.au/fwo/IDN60701/IDN60701.94786.json